ΕΜΥ, Εθνική Μετεωρολογική Υπηρεσία - Δελτία Καιρού, Προγνώσεις

ΑΕΡΟΝΑΥΤΙΛΙΑ

GREEK AIRPORTS CODES

LGKA 190400Z AUTO 31004KT 270V330 //// // ////// 17/12 Q1018 RE//=

EUROPEAN AIRPORTS CODES

LFPO 190400Z 26002KT CAVOK 13/12 Q1023 NOSIG=